createdAt,value
2018-07-24T00:00:21.224Z,17.34
2018-07-24T00:01:21.468Z,17.33
2018-07-24T00:02:21.710Z,17.33
2018-07-24T00:03:21.959Z,17.22
2018-07-24T00:04:22.202Z,17.31
2018-07-24T00:05:22.445Z,17.19
2018-07-24T00:06:22.689Z,17.16
2018-07-24T00:07:22.934Z,17.19
2018-07-24T00:08:23.176Z,17.25
2018-07-24T00:09:23.420Z,17.22
2018-07-24T00:10:23.664Z,17.28
2018-07-24T00:11:23.905Z,17.23
2018-07-24T00:12:24.148Z,17.21
2018-07-24T00:13:24.396Z,17.00
2018-07-24T00:14:24.637Z,16.64
2018-07-24T00:15:24.878Z,16.70
2018-07-24T00:16:25.119Z,16.58
2018-07-24T00:17:25.365Z,16.39
2018-07-24T00:18:25.606Z,16.30
2018-07-24T00:19:25.847Z,16.24
2018-07-24T00:20:26.087Z,16.25
2018-07-24T00:21:26.334Z,16.33
2018-07-24T00:22:26.572Z,16.28
2018-07-24T00:23:26.816Z,16.25
2018-07-24T00:24:27.059Z,16.30
2018-07-24T00:25:27.301Z,16.27
2018-07-24T00:26:27.543Z,16.20
2018-07-24T00:27:27.783Z,16.23
2018-07-24T00:28:28.025Z,16.23
2018-07-24T00:29:28.265Z,16.17
2018-07-24T00:30:28.508Z,16.27
2018-07-24T00:31:28.754Z,16.20
2018-07-24T00:32:28.993Z,16.23
2018-07-24T00:33:29.235Z,16.17
2018-07-24T00:34:29.475Z,16.31
2018-07-24T00:35:29.719Z,16.39
2018-07-24T00:36:29.959Z,16.35
2018-07-24T00:37:30.204Z,16.48
2018-07-24T00:38:30.446Z,16.61
2018-07-24T00:39:30.689Z,16.73
2018-07-24T00:40:30.933Z,16.81
2018-07-24T00:41:31.174Z,17.11
2018-07-24T00:42:31.417Z,17.11
2018-07-24T00:43:31.662Z,17.12
2018-07-24T00:44:31.902Z,17.01
2018-07-24T00:45:32.145Z,17.07
2018-07-24T00:46:32.388Z,17.03
2018-07-24T00:47:32.638Z,17.04
2018-07-24T00:48:32.871Z,16.97
2018-07-24T00:49:33.116Z,16.88
2018-07-24T00:50:33.359Z,16.85
2018-07-24T00:51:33.600Z,16.68
2018-07-24T00:52:33.843Z,16.60
2018-07-24T00:53:34.086Z,16.61
2018-07-24T00:54:34.328Z,16.63
2018-07-24T00:55:34.574Z,16.58
2018-07-24T00:56:34.813Z,16.63
2018-07-24T00:57:35.055Z,16.61
2018-07-24T00:58:35.293Z,16.61
2018-07-24T00:59:35.541Z,16.58
2018-07-24T01:00:35.782Z,16.68
2018-07-24T01:01:36.024Z,16.58
2018-07-24T01:02:36.267Z,16.70
2018-07-24T01:03:36.512Z,16.70
2018-07-24T01:04:36.757Z,16.67
2018-07-24T01:05:36.995Z,16.60
2018-07-24T01:06:37.239Z,16.61
2018-07-24T01:07:37.481Z,16.67
2018-07-24T01:08:37.753Z,16.61
2018-07-24T01:09:37.966Z,16.58
2018-07-24T01:10:38.209Z,16.58
2018-07-24T01:11:38.452Z,16.63
2018-07-24T01:12:38.696Z,16.57
2018-07-24T01:13:38.937Z,16.42
2018-07-24T01:14:39.181Z,16.45
2018-07-24T01:15:39.423Z,16.38
2018-07-24T01:16:39.667Z,16.35
2018-07-24T01:17:39.909Z,16.31
2018-07-24T01:18:40.150Z,16.30
2018-07-24T01:19:40.395Z,16.33
2018-07-24T01:20:40.637Z,16.25
2018-07-24T01:21:40.877Z,16.23
2018-07-24T01:22:41.118Z,16.28
2018-07-24T01:23:41.367Z,16.24
2018-07-24T01:24:41.607Z,16.12
2018-07-24T01:25:41.835Z,16.11
2018-07-24T01:26:42.070Z,16.05
2018-07-24T01:27:42.323Z,15.90
2018-07-24T01:28:42.565Z,16.02
2018-07-24T01:29:42.809Z,15.96
2018-07-24T01:30:43.051Z,15.94
2018-07-24T01:31:43.289Z,15.90
2018-07-24T01:32:43.536Z,15.87
2018-07-24T01:33:43.777Z,15.84
2018-07-24T01:34:44.021Z,15.90
2018-07-24T01:35:44.261Z,15.89
2018-07-24T01:36:44.504Z,15.84
2018-07-24T01:37:44.750Z,15.74
2018-07-24T01:38:44.991Z,15.74
2018-07-24T01:39:45.234Z,15.74
2018-07-24T01:40:45.478Z,15.75
2018-07-24T01:41:45.722Z,15.75
2018-07-24T01:42:45.964Z,15.80
2018-07-24T01:43:46.207Z,15.87
2018-07-24T01:44:46.449Z,15.87
2018-07-24T01:45:46.692Z,15.80
2018-07-24T01:46:46.933Z,15.84
2018-07-24T01:47:47.180Z,15.82
2018-07-24T01:48:47.422Z,15.83
2018-07-24T01:49:47.665Z,15.76
2018-07-24T01:50:47.907Z,15.78
2018-07-24T01:51:48.152Z,15.75
2018-07-24T01:52:48.396Z,15.68
2018-07-24T01:53:48.638Z,15.60
2018-07-24T01:54:48.879Z,15.64
2018-07-24T01:55:49.122Z,15.57
2018-07-24T01:56:49.365Z,15.60
2018-07-24T01:57:49.606Z,15.60
2018-07-24T01:58:49.850Z,15.56
2018-07-24T01:59:50.093Z,15.50
2018-07-24T02:00:50.336Z,15.51
2018-07-24T02:01:50.580Z,15.38
2018-07-24T02:02:50.821Z,15.25
2018-07-24T02:03:51.063Z,15.21
2018-07-24T02:04:51.304Z,15.17
2018-07-24T02:05:51.548Z,15.17
2018-07-24T02:06:51.791Z,15.10
2018-07-24T02:07:52.033Z,15.03
2018-07-24T02:08:52.276Z,15.01
2018-07-24T02:09:52.519Z,15.02
2018-07-24T02:10:52.763Z,15.03
2018-07-24T02:11:53.002Z,15.07
2018-07-24T02:12:53.243Z,15.14
2018-07-24T02:13:53.485Z,15.28
2018-07-24T02:14:53.727Z,15.28
2018-07-24T02:15:53.971Z,15.32
2018-07-24T02:16:54.211Z,15.25
2018-07-24T02:17:54.451Z,15.23
2018-07-24T02:18:54.693Z,15.17
2018-07-24T02:19:54.934Z,15.03
2018-07-24T02:20:55.175Z,14.89
2018-07-24T02:21:55.417Z,14.81
2018-07-24T02:22:55.659Z,14.81
2018-07-24T02:23:55.901Z,14.88
2018-07-24T02:24:56.144Z,14.91
2018-07-24T02:25:56.385Z,14.89
2018-07-24T02:26:56.626Z,15.02
2018-07-24T02:27:56.868Z,15.11
2018-07-24T02:28:57.107Z,15.02
2018-07-24T02:29:57.350Z,15.06
2018-07-24T02:30:57.591Z,15.11
2018-07-24T02:31:57.863Z,15.09
2018-07-24T02:32:58.076Z,15.20
2018-07-24T02:33:58.317Z,15.19
2018-07-24T02:34:58.558Z,15.20
2018-07-24T02:35:59.198Z,15.21
2018-07-24T02:39:54.842Z,15.39
2018-07-24T02:40:01.127Z,15.38
2018-07-24T02:41:00.344Z,15.38
2018-07-24T02:42:00.586Z,15.39
2018-07-24T02:43:00.827Z,15.56
2018-07-24T02:44:01.068Z,15.51
2018-07-24T02:45:01.309Z,15.53
2018-07-24T02:46:01.557Z,15.56
2018-07-24T02:47:01.796Z,15.51
2018-07-24T02:48:02.030Z,15.51
2018-07-24T02:49:02.272Z,15.54
2018-07-24T02:50:02.512Z,15.54
2018-07-24T02:51:02.763Z,15.50
2018-07-24T02:52:02.997Z,15.49
2018-07-24T02:53:03.237Z,15.38
2018-07-24T02:54:03.478Z,15.36
2018-07-24T02:55:03.718Z,15.32
2018-07-24T02:56:03.961Z,15.32
2018-07-24T02:57:04.202Z,15.16
2018-07-24T02:58:04.442Z,15.17
2018-07-24T02:59:04.684Z,15.14
2018-07-24T03:00:04.925Z,15.10
2018-07-24T03:01:05.171Z,15.09
2018-07-24T03:02:05.409Z,15.07
2018-07-24T03:03:05.650Z,15.02
2018-07-24T03:04:05.893Z,15.01
2018-07-24T03:05:06.135Z,15.01
2018-07-24T03:06:06.377Z,15.01
2018-07-24T03:07:06.619Z,14.99
2018-07-24T03:08:06.859Z,14.88
2018-07-24T03:09:07.103Z,14.92
2018-07-24T03:10:07.351Z,14.88
2018-07-24T03:11:07.588Z,14.83
2018-07-24T03:12:07.836Z,14.88
2018-07-24T03:13:08.076Z,14.80
2018-07-24T03:14:08.319Z,14.81
2018-07-24T03:15:08.565Z,14.75
2018-07-24T03:16:08.830Z,14.70
2018-07-24T03:17:09.047Z,14.75
2018-07-24T03:18:09.289Z,14.73
2018-07-24T03:19:09.532Z,14.69
2018-07-24T03:20:09.774Z,14.58
2018-07-24T03:21:10.023Z,14.55
2018-07-24T03:22:10.253Z,14.54
2018-07-24T03:23:10.497Z,14.52
2018-07-24T03:24:10.741Z,14.51
2018-07-24T03:25:10.983Z,14.54
2018-07-24T03:26:11.224Z,14.58
2018-07-24T03:27:11.466Z,14.57
2018-07-24T03:28:11.711Z,14.55
2018-07-24T03:29:11.951Z,14.64
2018-07-24T03:30:12.192Z,14.58
2018-07-24T03:31:12.435Z,14.65
2018-07-24T03:32:12.676Z,14.68
2018-07-24T03:33:12.920Z,14.70
2018-07-24T03:34:13.163Z,14.64
2018-07-24T03:35:13.403Z,14.65
2018-07-24T03:36:13.644Z,14.65
2018-07-24T03:37:13.888Z,14.73
2018-07-24T03:38:14.129Z,14.68
2018-07-24T03:39:14.374Z,14.70
2018-07-24T03:40:14.616Z,14.70
2018-07-24T03:41:14.856Z,14.68
2018-07-24T03:42:15.098Z,14.65
2018-07-24T03:43:15.340Z,14.65
2018-07-24T03:44:15.581Z,14.60
2018-07-24T03:45:15.823Z,14.57
2018-07-24T03:46:16.068Z,14.61
2018-07-24T03:47:16.307Z,14.64
2018-07-24T03:48:16.555Z,14.70
2018-07-24T03:49:16.797Z,14.64
2018-07-24T03:50:17.039Z,14.77
2018-07-24T03:51:17.279Z,14.70
2018-07-24T03:52:17.521Z,14.69
2018-07-24T03:53:17.763Z,14.68
2018-07-24T03:54:18.005Z,14.72
2018-07-24T03:55:18.240Z,14.57
2018-07-24T03:56:18.487Z,14.47
2018-07-24T03:57:18.730Z,14.45
2018-07-24T03:58:18.971Z,14.37
2018-07-24T03:59:19.213Z,14.37
2018-07-24T04:00:19.456Z,14.39
2018-07-24T04:01:19.697Z,14.22
2018-07-24T04:02:19.961Z,14.29
2018-07-24T04:03:20.181Z,14.32
2018-07-24T04:04:20.428Z,14.28
2018-07-24T04:05:20.671Z,14.40
2018-07-24T04:06:20.913Z,14.42
2018-07-24T04:07:21.153Z,14.40
2018-07-24T04:08:21.395Z,14.52
2018-07-24T04:09:21.636Z,14.55
2018-07-24T04:10:21.879Z,14.69
2018-07-24T04:11:22.119Z,14.65
2018-07-24T04:12:22.360Z,14.70
2018-07-24T04:13:22.600Z,14.69
2018-07-24T04:14:22.845Z,14.84
2018-07-24T04:15:23.085Z,14.78
2018-07-24T04:16:23.324Z,14.83
2018-07-24T04:17:23.569Z,14.80
2018-07-24T04:18:23.809Z,14.86
2018-07-24T04:19:24.049Z,14.86
2018-07-24T04:20:24.289Z,14.86
2018-07-24T04:21:24.532Z,14.86
2018-07-24T04:22:24.775Z,14.91
2018-07-24T04:23:25.018Z,14.98
2018-07-24T04:24:25.258Z,15.02
2018-07-24T04:25:25.504Z,15.03
2018-07-24T04:26:25.746Z,15.03
2018-07-24T04:27:25.988Z,15.14
2018-07-24T04:28:26.232Z,15.14
2018-07-24T04:29:26.472Z,15.20
2018-07-24T04:30:26.713Z,15.16
2018-07-24T04:31:26.953Z,15.16
2018-07-24T04:32:27.195Z,15.28
2018-07-24T04:33:27.436Z,15.28
2018-07-24T04:34:27.676Z,15.25
2018-07-24T04:35:27.923Z,15.21
2018-07-24T04:36:28.159Z,15.36
2018-07-24T04:37:28.403Z,15.32
2018-07-24T04:38:28.647Z,15.38
2018-07-24T04:39:28.890Z,15.51
2018-07-24T04:40:29.131Z,15.57
2018-07-24T04:41:29.373Z,15.62
2018-07-24T04:42:29.616Z,15.59
2018-07-24T04:43:29.857Z,15.65
2018-07-24T04:44:30.099Z,15.69
2018-07-24T04:45:30.340Z,15.76
2018-07-24T04:46:30.584Z,15.76
2018-07-24T04:47:30.830Z,15.84
2018-07-24T04:48:31.093Z,15.82
2018-07-24T04:49:31.306Z,15.87
2018-07-24T04:50:31.553Z,15.93
2018-07-24T04:51:31.799Z,15.94
2018-07-24T04:52:32.037Z,15.93
2018-07-24T04:53:32.280Z,16.04
2018-07-24T04:54:32.523Z,16.14
2018-07-24T04:55:32.767Z,16.07
2018-07-24T04:56:33.009Z,16.20
2018-07-24T04:57:33.252Z,16.23
2018-07-24T04:58:33.497Z,16.25
2018-07-24T04:59:33.741Z,16.25
2018-07-24T05:00:33.982Z,16.38
2018-07-24T05:01:34.225Z,16.34
2018-07-24T05:02:34.528Z,16.46
2018-07-24T05:03:34.710Z,16.49
2018-07-24T05:04:34.954Z,16.49
2018-07-24T05:05:35.196Z,16.52
2018-07-24T05:06:35.439Z,16.49
2018-07-24T05:07:35.683Z,16.52
2018-07-24T05:08:35.926Z,16.50
2018-07-24T05:09:36.213Z,16.49
2018-07-24T05:10:36.499Z,16.53
2018-07-24T05:11:36.670Z,16.58
2018-07-24T05:12:36.915Z,16.61
2018-07-24T05:13:37.160Z,16.73
2018-07-24T05:14:37.405Z,16.76
2018-07-24T05:15:37.646Z,16.83
2018-07-24T05:16:37.945Z,16.89
2018-07-24T05:17:38.132Z,17.00
2018-07-24T05:18:38.378Z,17.04
2018-07-24T05:19:38.619Z,17.00
2018-07-24T05:20:38.864Z,17.15
2018-07-24T05:21:39.108Z,17.12
2018-07-24T05:22:39.352Z,17.12
2018-07-24T05:23:39.658Z,17.30
2018-07-24T05:24:39.846Z,17.19
2018-07-24T05:25:40.084Z,17.26
2018-07-24T05:26:40.353Z,17.31
2018-07-24T05:27:40.575Z,17.43
2018-07-24T05:28:40.818Z,17.49
2018-07-24T05:29:41.064Z,17.52
2018-07-24T05:30:41.310Z,17.64
2018-07-24T05:31:41.711Z,17.63
2018-07-24T05:32:41.955Z,17.79
2018-07-24T05:33:42.241Z,17.79
2018-07-24T05:34:42.486Z,17.89
2018-07-24T05:35:42.739Z,17.96
2018-07-24T05:36:42.986Z,17.96
2018-07-24T05:37:43.229Z,18.10
2018-07-24T05:38:43.527Z,18.18
2018-07-24T05:39:43.717Z,18.37
2018-07-24T05:40:43.960Z,18.48
2018-07-24T05:41:44.203Z,18.52
2018-07-24T05:42:44.446Z,18.66
2018-07-24T05:43:44.689Z,18.70
2018-07-24T05:44:44.934Z,18.80
2018-07-24T05:45:45.178Z,18.81
2018-07-24T05:46:45.424Z,18.88
2018-07-24T05:47:45.668Z,18.91
2018-07-24T05:48:45.927Z,18.94
2018-07-24T05:49:46.158Z,19.11
2018-07-24T05:50:46.402Z,19.07
2018-07-24T05:51:46.647Z,19.18
2018-07-24T05:52:46.894Z,19.21
2018-07-24T05:53:47.135Z,19.40
2018-07-24T05:54:47.380Z,19.46
2018-07-24T05:55:47.634Z,19.55
2018-07-24T05:56:47.868Z,19.63
2018-07-24T05:57:48.112Z,19.68
2018-07-24T05:58:48.358Z,19.76
2018-07-24T05:59:48.605Z,19.84
2018-07-24T06:00:48.849Z,19.92
2018-07-24T06:01:49.100Z,19.91
2018-07-24T06:02:49.339Z,19.98
2018-07-24T06:03:49.584Z,20.01
2018-07-24T06:04:49.829Z,20.14
2018-07-24T06:05:50.074Z,20.16
2018-07-24T06:06:50.321Z,20.21
2018-07-24T06:07:50.564Z,20.28
2018-07-24T06:08:50.812Z,20.35
2018-07-24T06:09:51.054Z,20.33
2018-07-24T06:10:51.298Z,20.38
2018-07-24T06:11:51.543Z,20.48
2018-07-24T06:12:51.790Z,20.52
2018-07-24T06:13:52.036Z,20.52
2018-07-24T06:14:52.281Z,20.66
2018-07-24T06:15:52.527Z,20.74
2018-07-24T06:16:52.779Z,20.85
2018-07-24T06:17:53.021Z,20.92
2018-07-24T06:18:53.265Z,20.99
2018-07-24T06:19:53.517Z,21.06
2018-07-24T06:20:53.766Z,21.12
2018-07-24T06:21:54.046Z,21.32
2018-07-24T06:22:54.263Z,21.28
2018-07-24T06:23:54.509Z,21.32
2018-07-24T06:24:54.755Z,21.44
2018-07-24T06:25:55.002Z,21.54
2018-07-24T06:26:55.248Z,21.65
2018-07-24T06:27:55.553Z,21.62
2018-07-24T06:28:55.801Z,21.75
2018-07-24T06:29:56.049Z,21.77
2018-07-24T06:30:56.294Z,21.88
2018-07-24T06:31:56.539Z,21.94
2018-07-24T06:32:56.784Z,22.00
2018-07-24T06:33:57.030Z,22.06
2018-07-24T06:34:57.309Z,22.09
2018-07-24T06:35:57.520Z,22.05
2018-07-24T06:36:57.764Z,22.20
2018-07-24T06:37:58.011Z,22.22
2018-07-24T06:38:58.255Z,22.30
2018-07-24T06:39:58.501Z,22.39
2018-07-24T06:40:58.748Z,22.54
2018-07-24T06:41:58.995Z,22.64
2018-07-24T06:42:59.240Z,22.73
2018-07-24T06:43:59.488Z,22.80
2018-07-24T06:44:59.736Z,23.00
2018-07-24T06:46:00.098Z,22.88
2018-07-24T06:47:00.364Z,22.91
2018-07-24T06:48:00.611Z,23.02
2018-07-24T06:49:00.858Z,23.01
2018-07-24T06:50:01.106Z,23.19
2018-07-24T06:51:01.368Z,23.38
2018-07-24T06:52:01.737Z,23.51
2018-07-24T06:53:01.848Z,23.63
2018-07-24T06:54:02.097Z,23.76
2018-07-24T06:55:02.344Z,24.10
2018-07-24T06:56:02.647Z,23.97
2018-07-24T06:57:02.844Z,23.78
2018-07-24T06:58:03.091Z,23.90
2018-07-24T06:59:03.340Z,24.10
2018-07-24T07:00:03.593Z,24.27
2018-07-24T07:01:03.840Z,24.15
2018-07-24T07:02:04.137Z,24.09
2018-07-24T07:03:04.338Z,24.31
2018-07-24T07:04:04.591Z,24.60
2018-07-24T07:05:04.858Z,24.78
2018-07-24T07:06:05.087Z,24.71
2018-07-24T07:07:05.330Z,24.78
2018-07-24T07:08:05.577Z,24.88
2018-07-24T07:09:05.822Z,24.95
2018-07-24T07:10:06.073Z,25.06
2018-07-24T07:11:06.319Z,25.24
2018-07-24T07:12:06.564Z,25.30
2018-07-24T07:13:06.861Z,25.21
2018-07-24T07:14:07.065Z,25.28
2018-07-24T07:15:07.307Z,25.40
2018-07-24T07:16:07.564Z,25.83
2018-07-24T07:17:07.802Z,26.69
2018-07-24T07:18:08.049Z,27.27
2018-07-24T07:19:08.295Z,28.09
2018-07-24T07:20:08.543Z,28.62
2018-07-24T07:21:08.793Z,29.70
2018-07-24T07:22:09.039Z,30.39
2018-07-24T07:23:09.289Z,30.79
2018-07-24T07:24:09.534Z,31.29
2018-07-24T07:25:09.783Z,31.91
2018-07-24T07:26:10.096Z,32.25
2018-07-24T07:27:10.281Z,32.77
2018-07-24T07:28:10.532Z,32.96
2018-07-24T07:29:10.792Z,33.29
2018-07-24T07:30:11.028Z,33.69
2018-07-24T07:31:11.277Z,34.03
2018-07-24T07:32:11.561Z,34.42
2018-07-24T07:33:11.777Z,34.61
2018-07-24T07:34:12.028Z,34.54
2018-07-24T07:35:12.280Z,34.43
2018-07-24T07:36:12.530Z,34.21
2018-07-24T07:37:12.781Z,34.53
2018-07-24T07:38:13.031Z,34.78
2018-07-24T07:39:13.319Z,34.82
2018-07-24T07:40:13.533Z,34.81
2018-07-24T07:41:13.783Z,34.39
2018-07-24T07:42:14.035Z,34.27
2018-07-24T07:43:14.288Z,34.64
2018-07-24T07:44:14.544Z,34.70
2018-07-24T07:45:14.804Z,34.88
2018-07-24T07:46:15.044Z,35.03
2018-07-24T07:47:15.295Z,35.18
2018-07-24T07:48:15.549Z,34.99
2018-07-24T07:49:15.801Z,35.34
2018-07-24T07:50:16.055Z,32.92
2018-07-24T07:51:16.309Z,31.92
2018-07-24T07:52:16.562Z,32.69
2018-07-24T07:53:16.814Z,32.37
2018-07-24T07:54:17.066Z,30.95
2018-07-24T07:55:17.326Z,30.15
2018-07-24T07:56:17.576Z,29.37
2018-07-24T07:57:17.830Z,29.65
2018-07-24T07:58:18.082Z,30.13
2018-07-24T07:59:18.337Z,30.11
2018-07-24T08:00:18.594Z,29.55
2018-07-24T08:01:18.845Z,29.14
2018-07-24T08:02:19.099Z,29.02
2018-07-24T08:03:19.354Z,28.67
2018-07-24T08:04:19.649Z,29.19
2018-07-24T08:05:19.861Z,29.18
2018-07-24T08:06:20.116Z,29.24
2018-07-24T08:07:20.369Z,29.37
2018-07-24T08:08:20.622Z,29.34
2018-07-24T08:09:20.875Z,29.28
2018-07-24T08:10:21.129Z,29.24
2018-07-24T08:11:21.383Z,29.26
2018-07-24T08:12:21.671Z,29.24
2018-07-24T08:13:21.889Z,29.15
2018-07-24T08:14:22.142Z,29.12
2018-07-24T08:15:22.396Z,29.36
2018-07-24T08:16:22.659Z,30.15
2018-07-24T08:17:22.913Z,29.97
2018-07-24T08:18:23.172Z,29.97
2018-07-24T08:19:23.422Z,29.82
2018-07-24T08:20:23.678Z,29.41
2018-07-24T08:21:23.931Z,30.02
2018-07-24T08:22:24.212Z,29.76
2018-07-24T08:23:24.438Z,29.68
2018-07-24T08:24:24.693Z,29.57
2018-07-24T08:25:24.946Z,30.01
2018-07-24T08:26:25.196Z,30.29
2018-07-24T08:27:25.447Z,32.01
2018-07-24T08:28:25.699Z,31.44
2018-07-24T08:29:25.952Z,32.26
2018-07-24T08:30:26.207Z,31.78
2018-07-24T08:31:26.458Z,31.75
2018-07-24T08:32:26.706Z,31.41
2018-07-24T08:33:27.000Z,31.54
2018-07-24T08:34:27.211Z,31.62
2018-07-24T08:35:27.465Z,31.88
2018-07-24T08:36:27.716Z,31.38
2018-07-24T08:37:27.965Z,31.85
2018-07-24T08:38:28.218Z,32.88
2018-07-24T08:39:28.472Z,32.52
2018-07-24T08:40:28.724Z,32.74
2018-07-24T08:41:28.976Z,32.00
2018-07-24T08:42:29.229Z,31.44
2018-07-24T08:43:29.486Z,31.32
2018-07-24T08:44:29.738Z,31.31
2018-07-24T08:45:29.993Z,31.12
2018-07-24T08:46:30.246Z,31.38
2018-07-24T08:47:30.500Z,31.69
2018-07-24T08:48:30.753Z,31.95
2018-07-24T08:49:31.006Z,31.38
2018-07-24T08:50:31.259Z,31.46
2018-07-24T08:51:31.513Z,32.32
2018-07-24T08:52:31.869Z,32.04
2018-07-24T08:53:32.285Z,32.21
2018-07-24T08:54:32.426Z,33.79
2018-07-24T08:55:32.921Z,32.45
2018-07-24T08:56:32.785Z,33.86
2018-07-24T08:57:33.035Z,34.85
2018-07-24T08:58:33.289Z,35.72
2018-07-24T08:59:33.542Z,36.53
2018-07-24T09:00:33.805Z,37.21
2018-07-24T09:01:34.051Z,37.96
2018-07-24T09:02:34.307Z,38.15
2018-07-24T09:03:34.652Z,38.50
2018-07-24T09:04:34.815Z,38.59
2018-07-24T09:05:35.070Z,38.34
2018-07-24T09:06:35.325Z,38.65
2018-07-24T09:07:35.580Z,38.54
2018-07-24T09:08:35.833Z,38.49
2018-07-24T09:09:36.088Z,38.04
2018-07-24T09:10:36.346Z,38.50
2018-07-24T09:11:36.602Z,38.84
2018-07-24T09:12:36.858Z,38.81
2018-07-24T09:13:37.113Z,39.30
2018-07-24T09:14:37.371Z,37.93
2018-07-24T09:15:37.715Z,38.16
2018-07-24T09:16:37.869Z,38.72
2018-07-24T09:17:38.126Z,38.72
2018-07-24T09:18:38.383Z,38.44
2018-07-24T09:19:38.641Z,38.38
2018-07-24T09:20:38.917Z,38.30
2018-07-24T09:21:39.174Z,38.84
2018-07-24T09:22:39.432Z,39.47
2018-07-24T09:23:39.688Z,40.03
2018-07-24T09:24:39.944Z,39.89
2018-07-24T09:25:40.217Z,40.12
2018-07-24T09:26:40.489Z,40.45
2018-07-24T09:27:40.746Z,40.70
2018-07-24T09:28:41.004Z,40.23
2018-07-24T09:29:41.263Z,38.19
2018-07-24T09:30:41.519Z,38.52
2018-07-24T09:31:41.777Z,38.93
2018-07-24T09:32:42.035Z,39.78
2018-07-24T09:33:42.293Z,40.32
2018-07-24T09:34:42.552Z,40.84
2018-07-24T09:35:42.810Z,40.69
2018-07-24T09:36:43.070Z,40.38
2018-07-24T09:37:43.325Z,41.07
2018-07-24T09:38:43.583Z,41.20
2018-07-24T09:39:43.843Z,38.54
2018-07-24T09:40:44.102Z,37.97
2018-07-24T09:41:44.360Z,38.46
2018-07-24T09:42:44.619Z,38.74
2018-07-24T09:43:44.877Z,39.22
2018-07-24T09:44:45.134Z,39.35
2018-07-24T09:45:45.450Z,39.67
2018-07-24T09:46:45.653Z,39.38
2018-07-24T09:47:45.914Z,40.35
2018-07-24T09:48:46.173Z,40.32
2018-07-24T09:49:46.431Z,40.94
2018-07-24T09:50:46.691Z,40.73
2018-07-24T09:51:46.950Z,40.22
2018-07-24T09:52:47.213Z,38.90
2018-07-24T09:53:47.473Z,36.56
2018-07-24T09:54:47.729Z,38.12
2018-07-24T09:55:47.987Z,39.11
2018-07-24T09:56:48.245Z,39.35
2018-07-24T09:57:48.506Z,39.77
2018-07-24T09:58:48.766Z,40.45
2018-07-24T09:59:49.025Z,41.01
2018-07-24T10:00:49.284Z,41.49
2018-07-24T10:01:49.543Z,41.82
2018-07-24T10:02:49.803Z,41.66
2018-07-24T10:03:50.060Z,41.23
2018-07-24T10:04:50.319Z,41.02
2018-07-24T10:05:50.579Z,40.73
2018-07-24T10:06:50.841Z,40.38
2018-07-24T10:07:51.098Z,40.10
2018-07-24T10:08:51.359Z,39.92
2018-07-24T10:09:51.620Z,40.04
2018-07-24T10:10:51.896Z,40.79
2018-07-24T10:11:52.139Z,40.76
2018-07-24T10:12:52.428Z,39.52
2018-07-24T10:13:52.659Z,39.64
2018-07-24T10:14:52.915Z,39.84
2018-07-24T10:15:53.176Z,39.47
2018-07-24T10:16:53.472Z,39.66
2018-07-24T10:17:53.701Z,39.84
2018-07-24T10:18:53.980Z,39.89
2018-07-24T10:19:54.221Z,40.43
2018-07-24T10:20:54.482Z,40.53
2018-07-24T10:21:54.742Z,40.84
2018-07-24T10:22:55.006Z,40.27
2018-07-24T10:23:55.264Z,40.79
2018-07-24T10:24:55.524Z,40.53
2018-07-24T10:25:55.787Z,41.02
2018-07-24T10:26:56.051Z,41.42
2018-07-24T10:27:56.310Z,41.69
2018-07-24T10:28:56.570Z,42.18
2018-07-24T10:29:56.836Z,42.33
2018-07-24T10:30:57.097Z,42.71
2018-07-24T10:31:57.356Z,42.76
2018-07-24T10:32:57.619Z,42.62
2018-07-24T10:33:57.881Z,42.21
2018-07-24T10:34:58.164Z,41.67
2018-07-24T10:35:58.432Z,39.97
2018-07-24T10:36:58.700Z,40.00
2018-07-24T10:37:58.952Z,40.16
2018-07-24T10:38:59.213Z,40.62
2018-07-24T10:39:59.475Z,40.16
2018-07-24T10:40:59.738Z,40.79
2018-07-24T10:41:59.995Z,40.55
2018-07-24T10:43:00.318Z,40.89
2018-07-24T10:44:00.521Z,40.89
2018-07-24T10:45:00.785Z,40.53
2018-07-24T10:46:01.042Z,40.03
2018-07-24T10:47:01.304Z,39.75
2018-07-24T10:48:01.564Z,40.29
2018-07-24T10:49:01.825Z,40.80
2018-07-24T10:50:02.086Z,41.44
2018-07-24T10:51:02.345Z,41.74
2018-07-24T10:52:02.640Z,41.37
2018-07-24T10:53:02.868Z,42.12
2018-07-24T10:54:03.132Z,41.64
2018-07-24T10:55:03.390Z,41.80
2018-07-24T10:56:03.653Z,42.13
2018-07-24T10:57:03.914Z,42.13
2018-07-24T10:58:04.174Z,42.20
2018-07-24T10:59:04.435Z,42.35
2018-07-24T11:00:04.699Z,41.78
2018-07-24T11:01:04.960Z,41.83
2018-07-24T11:02:05.226Z,38.26
2018-07-24T11:03:05.486Z,37.02
2018-07-24T11:04:05.754Z,37.64
2018-07-24T11:05:06.011Z,36.85
2018-07-24T11:06:06.270Z,34.66
2018-07-24T11:07:06.537Z,34.32
2018-07-24T11:08:06.798Z,34.28
2018-07-24T11:09:07.060Z,34.77
2018-07-24T11:10:07.329Z,35.43
2018-07-24T11:11:07.580Z,36.80
2018-07-24T11:12:07.839Z,37.98
2018-07-24T11:13:08.099Z,37.64
2018-07-24T11:14:08.359Z,36.81
2018-07-24T11:15:08.617Z,37.44
2018-07-24T11:16:08.878Z,37.05
2018-07-24T11:17:09.139Z,36.23
2018-07-24T11:18:09.397Z,36.54
2018-07-24T11:19:09.657Z,37.21
2018-07-24T11:20:09.916Z,38.26
2018-07-24T11:21:10.176Z,39.11
2018-07-24T11:22:10.559Z,39.67
2018-07-24T11:23:10.816Z,37.25
2018-07-24T11:24:10.956Z,35.53
2018-07-24T11:25:11.218Z,34.70
2018-07-24T11:26:11.479Z,34.15
2018-07-24T11:27:11.741Z,34.50
2018-07-24T11:28:12.002Z,34.10
2018-07-24T11:29:12.260Z,34.59
2018-07-24T11:30:12.521Z,34.96
2018-07-24T11:31:12.787Z,33.94
2018-07-24T11:32:13.044Z,33.50
2018-07-24T11:33:13.329Z,33.79
2018-07-24T11:34:13.583Z,33.78
2018-07-24T11:35:13.822Z,33.26
2018-07-24T11:36:14.133Z,33.35
2018-07-24T11:37:14.341Z,34.53
2018-07-24T11:38:14.598Z,35.71
2018-07-24T11:39:14.857Z,36.17
2018-07-24T11:40:15.116Z,36.68
2018-07-24T11:41:15.372Z,36.85
2018-07-24T11:42:15.629Z,36.71
2018-07-24T11:43:15.886Z,37.63
2018-07-24T11:44:16.143Z,38.72
2018-07-24T11:45:16.400Z,39.75
2018-07-24T11:46:16.656Z,40.03
2018-07-24T11:47:16.915Z,37.46
2018-07-24T11:48:17.173Z,37.56
2018-07-24T11:49:17.429Z,37.06
2018-07-24T11:50:17.691Z,35.45
2018-07-24T11:51:17.951Z,34.88
2018-07-24T11:52:18.210Z,36.25
2018-07-24T11:53:18.465Z,36.68
2018-07-24T11:54:18.727Z,34.82
2018-07-24T11:55:18.997Z,34.99
2018-07-24T11:56:19.245Z,36.71
2018-07-24T11:57:19.502Z,37.74
2018-07-24T11:58:19.773Z,36.95
2018-07-24T11:59:20.016Z,37.82
2018-07-24T12:00:20.272Z,38.72
2018-07-24T12:01:20.531Z,37.57
2018-07-24T12:02:20.796Z,36.17
2018-07-24T12:03:21.052Z,36.07
2018-07-24T12:04:21.308Z,36.07
2018-07-24T12:05:21.567Z,35.97
2018-07-24T12:06:21.825Z,36.60
2018-07-24T12:07:22.082Z,37.24
2018-07-24T12:08:22.341Z,37.13
2018-07-24T12:09:22.601Z,36.75
2018-07-24T12:10:22.856Z,37.56
2018-07-24T12:11:23.115Z,38.65
2018-07-24T12:12:23.373Z,39.21
2018-07-24T12:13:23.629Z,38.88
2018-07-24T12:14:23.888Z,39.45
2018-07-24T12:15:24.145Z,40.15
2018-07-24T12:16:24.403Z,39.45
2018-07-24T12:17:24.660Z,39.54
2018-07-24T12:18:24.921Z,36.78
2018-07-24T12:19:25.235Z,36.94
2018-07-24T12:20:25.437Z,38.52
2018-07-24T12:21:25.696Z,39.18
2018-07-24T12:22:25.954Z,39.81
2018-07-24T12:23:26.212Z,40.27
2018-07-24T12:24:26.470Z,40.13
2018-07-24T12:25:26.730Z,40.64
2018-07-24T12:26:26.992Z,40.73
2018-07-24T12:27:27.246Z,39.94
2018-07-24T12:28:27.506Z,37.81
2018-07-24T12:29:27.765Z,37.32
2018-07-24T12:30:28.024Z,38.63
2018-07-24T12:31:28.285Z,38.81
2018-07-24T12:32:28.539Z,39.40
2018-07-24T12:33:28.798Z,40.18
2018-07-24T12:34:29.056Z,40.88
2018-07-24T12:35:29.313Z,40.67
2018-07-24T12:36:29.575Z,39.51
2018-07-24T12:37:29.830Z,38.71
2018-07-24T12:38:30.090Z,38.59
2018-07-24T12:39:30.354Z,39.57
2018-07-24T12:40:30.610Z,40.04
2018-07-24T12:41:30.869Z,40.57
2018-07-24T12:42:31.128Z,41.10
2018-07-24T12:43:31.414Z,41.86
2018-07-24T12:44:31.635Z,42.12
2018-07-24T12:45:31.896Z,42.09
2018-07-24T12:46:32.156Z,42.09
2018-07-24T12:47:32.415Z,42.21
2018-07-24T12:48:32.672Z,41.37
2018-07-24T12:49:32.935Z,40.88
2018-07-24T12:50:33.193Z,38.23
2018-07-24T12:51:33.455Z,36.83
2018-07-24T12:52:33.765Z,36.93
2018-07-24T12:53:33.999Z,36.72
2018-07-24T12:54:34.231Z,38.16
2018-07-24T12:55:34.493Z,38.76
2018-07-24T12:56:34.752Z,39.47
2018-07-24T12:57:35.013Z,38.76